sensor_id;sensor_type;location;lat;lon;timestamp;P1;durP1;ratioP1;P2;durP2;ratioP2
24521;SDS011;12680;57.804;12.190;2022-09-03T00:01:45;0.93;;;0.57;;
24521;SDS011;12680;57.804;12.190;2022-09-03T00:04:36;0.55;;;0.50;;
24521;SDS011;12680;57.804;12.190;2022-09-03T00:07:39;0.60;;;0.55;;
24521;SDS011;12680;57.804;12.190;2022-09-03T00:10:22;0.73;;;0.70;;
24521;SDS011;12680;57.804;12.190;2022-09-03T00:12:59;1.10;;;0.35;;
24521;SDS011;12680;57.804;12.190;2022-09-03T00:15:38;0.50;;;0.50;;
24521;SDS011;12680;57.804;12.190;2022-09-03T00:18:07;3.63;;;0.52;;
24521;SDS011;12680;57.804;12.190;2022-09-03T00:20:53;0.50;;;0.50;;
24521;SDS011;12680;57.804;12.190;2022-09-03T00:23:25;1.15;;;0.63;;
24521;SDS011;12680;57.804;12.190;2022-09-03T00:25:58;1.08;;;0.60;;
24521;SDS011;12680;57.804;12.190;2022-09-03T00:28:41;0.85;;;0.77;;
24521;SDS011;12680;57.804;12.190;2022-09-03T00:31:17;0.57;;;0.55;;
24521;SDS011;12680;57.804;12.190;2022-09-03T00:33:57;1.13;;;0.60;;
24521;SDS011;12680;57.804;12.190;2022-09-03T00:36:47;0.40;;;0.40;;
24521;SDS011;12680;57.804;12.190;2022-09-03T00:39:16;1.00;;;0.63;;
24521;SDS011;12680;57.804;12.190;2022-09-03T00:47:40;1.00;;;0.80;;
24521;SDS011;12680;57.804;12.190;2022-09-03T00:53:03;0.65;;;0.50;;
24521;SDS011;12680;57.804;12.190;2022-09-03T00:56:02;0.57;;;0.57;;
24521;SDS011;12680;57.804;12.190;2022-09-03T01:01:24;1.73;;;0.73;;
24521;SDS011;12680;57.804;12.190;2022-09-03T01:12:42;1.05;;;0.60;;
24521;SDS011;12680;57.804;12.190;2022-09-03T01:15:35;0.95;;;0.85;;
24521;SDS011;12680;57.804;12.190;2022-09-03T01:21:43;0.60;;;0.60;;
24521;SDS011;12680;57.804;12.190;2022-09-03T01:30:19;1.35;;;0.70;;
24521;SDS011;12680;57.804;12.190;2022-09-03T01:35:46;0.77;;;0.65;;
24521;SDS011;12680;57.804;12.190;2022-09-03T01:50:22;0.80;;;0.80;;
24521;SDS011;12680;57.804;12.190;2022-09-03T01:53:14;1.00;;;0.70;;
24521;SDS011;12680;57.804;12.190;2022-09-03T01:58:56;1.02;;;0.65;;
24521;SDS011;12680;57.804;12.190;2022-09-03T02:01:35;0.70;;;0.60;;
24521;SDS011;12680;57.804;12.190;2022-09-03T02:04:27;1.17;;;0.70;;
24521;SDS011;12680;57.804;12.190;2022-09-03T02:06:56;0.65;;;0.65;;
24521;SDS011;12680;57.804;12.190;2022-09-03T02:09:29;1.48;;;0.88;;
24521;SDS011;12680;57.804;12.190;2022-09-03T02:12:07;0.73;;;0.60;;
24521;SDS011;12680;57.804;12.190;2022-09-03T02:14:41;2.13;;;0.85;;
24521;SDS011;12680;57.804;12.190;2022-09-03T02:17:10;1.15;;;0.65;;
24521;SDS011;12680;57.804;12.190;2022-09-03T02:19:44;3.03;;;0.98;;
24521;SDS011;12680;57.804;12.190;2022-09-03T02:22:11;0.65;;;0.63;;
24521;SDS011;12680;57.804;12.190;2022-09-03T02:24:39;1.17;;;0.80;;
24521;SDS011;12680;57.804;12.190;2022-09-03T02:27:12;0.60;;;0.60;;
24521;SDS011;12680;57.804;12.190;2022-09-03T02:29:40;0.60;;;0.60;;
24521;SDS011;12680;57.804;12.190;2022-09-03T02:32:12;2.00;;;0.80;;
24521;SDS011;12680;57.804;12.190;2022-09-03T02:34:44;1.33;;;0.82;;
24521;SDS011;12680;57.804;12.190;2022-09-03T02:37:16;0.63;;;0.60;;
24521;SDS011;12680;57.804;12.190;2022-09-03T02:39:45;0.63;;;0.50;;
24521;SDS011;12680;57.804;12.190;2022-09-03T02:42:12;1.13;;;0.98;;
24521;SDS011;12680;57.804;12.190;2022-09-03T02:44:45;1.25;;;0.70;;
24521;SDS011;12680;57.804;12.190;2022-09-03T02:47:18;1.67;;;0.85;;
24521;SDS011;12680;57.804;12.190;2022-09-03T02:49:54;1.00;;;0.65;;
24521;SDS011;12680;57.804;12.190;2022-09-03T02:52:29;0.60;;;0.60;;
24521;SDS011;12680;57.804;12.190;2022-09-03T02:54:56;2.50;;;0.73;;
24521;SDS011;12680;57.804;12.190;2022-09-03T02:57:24;1.65;;;0.90;;
24521;SDS011;12680;57.804;12.190;2022-09-03T02:59:53;0.60;;;0.60;;
24521;SDS011;12680;57.804;12.190;2022-09-03T03:02:24;0.95;;;0.68;;
24521;SDS011;12680;57.804;12.190;2022-09-03T03:04:52;1.05;;;1.02;;
24521;SDS011;12680;57.804;12.190;2022-09-03T03:07:22;0.95;;;0.82;;
24521;SDS011;12680;57.804;12.190;2022-09-03T03:09:51;0.77;;;0.65;;
24521;SDS011;12680;57.804;12.190;2022-09-03T03:12:24;0.90;;;0.85;;
24521;SDS011;12680;57.804;12.190;2022-09-03T03:14:51;0.57;;;0.57;;
24521;SDS011;12680;57.804;12.190;2022-09-03T03:17:23;1.10;;;0.65;;
24521;SDS011;12680;57.804;12.190;2022-09-03T03:19:58;0.85;;;0.68;;
24521;SDS011;12680;57.804;12.190;2022-09-03T03:22:25;0.82;;;0.50;;
24521;SDS011;12680;57.804;12.190;2022-09-03T03:25:00;1.02;;;0.65;;
24521;SDS011;12680;57.804;12.190;2022-09-03T03:27:34;0.50;;;0.50;;
24521;SDS011;12680;57.804;12.190;2022-09-03T03:30:06;0.60;;;0.60;;
24521;SDS011;12680;57.804;12.190;2022-09-03T03:32:36;0.60;;;0.60;;
24521;SDS011;12680;57.804;12.190;2022-09-03T03:35:07;0.68;;;0.65;;
24521;SDS011;12680;57.804;12.190;2022-09-03T03:37:34;0.63;;;0.63;;
24521;SDS011;12680;57.804;12.190;2022-09-03T03:40:09;3.38;;;0.70;;
24521;SDS011;12680;57.804;12.190;2022-09-03T03:42:40;0.80;;;0.73;;
24521;SDS011;12680;57.804;12.190;2022-09-03T03:45:08;0.50;;;0.50;;
24521;SDS011;12680;57.804;12.190;2022-09-03T03:47:41;1.60;;;0.77;;
24521;SDS011;12680;57.804;12.190;2022-09-03T03:52:43;1.42;;;0.68;;
24521;SDS011;12680;57.804;12.190;2022-09-03T03:55:18;0.70;;;0.70;;
24521;SDS011;12680;57.804;12.190;2022-09-03T03:57:49;0.65;;;0.60;;
24521;SDS011;12680;57.804;12.190;2022-09-03T04:00:20;2.28;;;0.93;;
24521;SDS011;12680;57.804;12.190;2022-09-03T04:02:53;0.73;;;0.70;;
24521;SDS011;12680;57.804;12.190;2022-09-03T04:05:26;0.90;;;0.70;;
24521;SDS011;12680;57.804;12.190;2022-09-03T04:08:02;1.20;;;0.75;;
24521;SDS011;12680;57.804;12.190;2022-09-03T04:10:29;1.03;;;0.80;;
24521;SDS011;12680;57.804;12.190;2022-09-03T04:13:00;1.08;;;0.73;;
24521;SDS011;12680;57.804;12.190;2022-09-03T04:15:31;1.73;;;1.13;;
24521;SDS011;12680;57.804;12.190;2022-09-03T04:18:02;0.73;;;0.73;;
24521;SDS011;12680;57.804;12.190;2022-09-03T04:20:33;4.68;;;0.60;;
24521;SDS011;12680;57.804;12.190;2022-09-03T04:25:38;1.67;;;0.70;;
24521;SDS011;12680;57.804;12.190;2022-09-03T04:28:13;2.15;;;0.52;;
24521;SDS011;12680;57.804;12.190;2022-09-03T04:30:42;1.40;;;0.73;;
24521;SDS011;12680;57.804;12.190;2022-09-03T04:33:14;0.50;;;0.50;;
24521;SDS011;12680;57.804;12.190;2022-09-03T04:35:49;1.00;;;0.60;;
24521;SDS011;12680;57.804;12.190;2022-09-03T04:38:16;0.52;;;0.52;;
24521;SDS011;12680;57.804;12.190;2022-09-03T04:40:56;3.73;;;0.67;;
24521;SDS011;12680;57.804;12.190;2022-09-03T04:43:26;0.52;;;0.52;;
24521;SDS011;12680;57.804;12.190;2022-09-03T04:46:00;1.95;;;0.60;;
24521;SDS011;12680;57.804;12.190;2022-09-03T04:48:30;0.52;;;0.52;;
24521;SDS011;12680;57.804;12.190;2022-09-03T04:51:03;0.52;;;0.52;;
24521;SDS011;12680;57.804;12.190;2022-09-03T04:53:46;1.08;;;0.52;;
24521;SDS011;12680;57.804;12.190;2022-09-03T04:56:22;1.35;;;0.70;;
24521;SDS011;12680;57.804;12.190;2022-09-03T04:58:55;2.45;;;0.75;;
24521;SDS011;12680;57.804;12.190;2022-09-03T05:01:28;0.88;;;0.70;;
24521;SDS011;12680;57.804;12.190;2022-09-03T05:03:58;0.60;;;0.60;;
24521;SDS011;12680;57.804;12.190;2022-09-03T05:06:26;0.77;;;0.75;;
24521;SDS011;12680;57.804;12.190;2022-09-03T05:08:54;4.03;;;0.65;;
24521;SDS011;12680;57.804;12.190;2022-09-03T05:11:22;0.80;;;0.75;;
24521;SDS011;12680;57.804;12.190;2022-09-03T05:13:55;1.23;;;0.60;;
24521;SDS011;12680;57.804;12.190;2022-09-03T05:16:23;1.25;;;0.60;;
24521;SDS011;12680;57.804;12.190;2022-09-03T05:18:56;2.30;;;0.68;;
24521;SDS011;12680;57.804;12.190;2022-09-03T05:21:37;1.23;;;0.77;;
24521;SDS011;12680;57.804;12.190;2022-09-03T05:24:04;1.43;;;0.93;;
24521;SDS011;12680;57.804;12.190;2022-09-03T05:26:40;0.80;;;0.60;;
24521;SDS011;12680;57.804;12.190;2022-09-03T05:29:11;1.02;;;0.68;;
24521;SDS011;12680;57.804;12.190;2022-09-03T05:31:39;0.82;;;0.80;;
24521;SDS011;12680;57.804;12.190;2022-09-03T05:34:14;2.63;;;0.88;;
24521;SDS011;12680;57.804;12.190;2022-09-03T05:36:43;1.00;;;0.65;;
24521;SDS011;12680;57.804;12.190;2022-09-03T05:39:12;0.65;;;0.60;;
24521;SDS011;12680;57.804;12.190;2022-09-03T05:41:43;0.60;;;0.60;;
24521;SDS011;12680;57.804;12.190;2022-09-03T05:44:10;0.77;;;0.77;;
24521;SDS011;12680;57.804;12.190;2022-09-03T05:46:41;0.32;;;0.30;;
24521;SDS011;12680;57.804;12.190;2022-09-03T05:49:12;2.08;;;0.60;;
24521;SDS011;12680;57.804;12.190;2022-09-03T05:51:40;0.55;;;0.55;;
24521;SDS011;12680;57.804;12.190;2022-09-03T05:54:16;0.90;;;0.88;;
24521;SDS011;12680;57.804;12.190;2022-09-03T05:56:43;0.50;;;0.50;;
24521;SDS011;12680;57.804;12.190;2022-09-03T05:59:10;0.50;;;0.50;;
24521;SDS011;12680;57.804;12.190;2022-09-03T06:01:43;0.50;;;0.50;;
24521;SDS011;12680;57.804;12.190;2022-09-03T06:04:20;0.65;;;0.65;;
24521;SDS011;12680;57.804;12.190;2022-09-03T06:06:51;1.27;;;0.70;;
24521;SDS011;12680;57.804;12.190;2022-09-03T06:09:25;0.68;;;0.60;;
24521;SDS011;12680;57.804;12.190;2022-09-03T06:12:02;0.65;;;0.55;;
24521;SDS011;12680;57.804;12.190;2022-09-03T06:14:33;1.33;;;0.50;;
24521;SDS011;12680;57.804;12.190;2022-09-03T06:17:00;2.47;;;0.70;;
24521;SDS011;12680;57.804;12.190;2022-09-03T06:19:27;0.50;;;0.50;;
24521;SDS011;12680;57.804;12.190;2022-09-03T06:21:58;0.30;;;0.30;;
24521;SDS011;12680;57.804;12.190;2022-09-03T06:24:30;0.55;;;0.50;;
24521;SDS011;12680;57.804;12.190;2022-09-03T06:27:04;0.50;;;0.40;;
24521;SDS011;12680;57.804;12.190;2022-09-03T06:29:35;1.40;;;0.38;;
24521;SDS011;12680;57.804;12.190;2022-09-03T06:32:04;1.88;;;0.40;;
24521;SDS011;12680;57.804;12.190;2022-09-03T06:34:35;0.43;;;0.32;;
24521;SDS011;12680;57.804;12.190;2022-09-03T06:37:06;0.40;;;0.40;;
24521;SDS011;12680;57.804;12.190;2022-09-03T06:39:37;0.50;;;0.50;;
24521;SDS011;12680;57.804;12.190;2022-09-03T06:42:07;1.02;;;0.55;;
24521;SDS011;12680;57.804;12.190;2022-09-03T06:44:35;0.40;;;0.40;;
24521;SDS011;12680;57.804;12.190;2022-09-03T06:47:02;0.40;;;0.40;;
24521;SDS011;12680;57.804;12.190;2022-09-03T06:49:29;0.40;;;0.40;;
24521;SDS011;12680;57.804;12.190;2022-09-03T06:51:59;1.08;;;0.65;;
24521;SDS011;12680;57.804;12.190;2022-09-03T06:54:27;0.50;;;0.40;;
24521;SDS011;12680;57.804;12.190;2022-09-03T06:56:54;0.68;;;0.40;;
24521;SDS011;12680;57.804;12.190;2022-09-03T06:59:21;0.38;;;0.38;;
24521;SDS011;12680;57.804;12.190;2022-09-03T07:01:48;1.60;;;0.50;;
24521;SDS011;12680;57.804;12.190;2022-09-03T07:04:16;2.33;;;0.65;;
24521;SDS011;12680;57.804;12.190;2022-09-03T07:06:50;0.40;;;0.40;;
24521;SDS011;12680;57.804;12.190;2022-09-03T07:09:17;0.57;;;0.30;;
24521;SDS011;12680;57.804;12.190;2022-09-03T07:11:44;0.80;;;0.50;;
24521;SDS011;12680;57.804;12.190;2022-09-03T07:14:15;0.60;;;0.40;;
24521;SDS011;12680;57.804;12.190;2022-09-03T07:16:44;2.03;;;0.43;;
24521;SDS011;12680;57.804;12.190;2022-09-03T07:19:12;0.38;;;0.30;;
24521;SDS011;12680;57.804;12.190;2022-09-03T07:21:39;1.77;;;0.60;;
24521;SDS011;12680;57.804;12.190;2022-09-03T07:24:14;0.60;;;0.40;;
24521;SDS011;12680;57.804;12.190;2022-09-03T07:26:42;0.30;;;0.30;;
24521;SDS011;12680;57.804;12.190;2022-09-03T07:29:14;0.43;;;0.38;;
24521;SDS011;12680;57.804;12.190;2022-09-03T07:31:46;0.30;;;0.30;;
24521;SDS011;12680;57.804;12.190;2022-09-03T07:34:18;1.33;;;0.52;;
24521;SDS011;12680;57.804;12.190;2022-09-03T07:36:47;0.40;;;0.40;;
24521;SDS011;12680;57.804;12.190;2022-09-03T07:39:17;0.43;;;0.40;;
24521;SDS011;12680;57.804;12.190;2022-09-03T07:41:45;1.95;;;0.30;;
24521;SDS011;12680;57.804;12.190;2022-09-03T07:44:16;0.40;;;0.40;;
24521;SDS011;12680;57.804;12.190;2022-09-03T07:46:47;0.57;;;0.35;;
24521;SDS011;12680;57.804;12.190;2022-09-03T07:49:17;0.40;;;0.40;;
24521;SDS011;12680;57.804;12.190;2022-09-03T07:51:45;0.52;;;0.52;;
24521;SDS011;12680;57.804;12.190;2022-09-03T07:54:16;1.85;;;0.52;;
24521;SDS011;12680;57.804;12.190;2022-09-03T07:56:43;0.63;;;0.47;;
24521;SDS011;12680;57.804;12.190;2022-09-03T07:59:10;0.47;;;0.47;;
24521;SDS011;12680;57.804;12.190;2022-09-03T08:01:38;1.67;;;0.43;;
24521;SDS011;12680;57.804;12.190;2022-09-03T08:04:07;0.40;;;0.40;;
24521;SDS011;12680;57.804;12.190;2022-09-03T08:06:36;1.95;;;0.70;;
24521;SDS011;12680;57.804;12.190;2022-09-03T08:09:05;1.95;;;0.50;;
24521;SDS011;12680;57.804;12.190;2022-09-03T08:11:35;0.75;;;0.43;;
24521;SDS011;12680;57.804;12.190;2022-09-03T08:14:05;0.32;;;0.30;;
24521;SDS011;12680;57.804;12.190;2022-09-03T08:16:37;0.63;;;0.63;;
24521;SDS011;12680;57.804;12.190;2022-09-03T08:19:14;0.50;;;0.30;;
24521;SDS011;12680;57.804;12.190;2022-09-03T08:21:44;0.50;;;0.50;;
24521;SDS011;12680;57.804;12.190;2022-09-03T08:24:13;0.57;;;0.40;;
24521;SDS011;12680;57.804;12.190;2022-09-03T08:26:41;0.35;;;0.35;;
24521;SDS011;12680;57.804;12.190;2022-09-03T08:29:16;1.10;;;0.40;;
24521;SDS011;12680;57.804;12.190;2022-09-03T08:31:44;0.32;;;0.30;;
24521;SDS011;12680;57.804;12.190;2022-09-03T08:34:15;0.50;;;0.50;;
24521;SDS011;12680;57.804;12.190;2022-09-03T08:39:14;0.47;;;0.40;;
24521;SDS011;12680;57.804;12.190;2022-09-03T08:44:35;0.30;;;0.30;;
24521;SDS011;12680;57.804;12.190;2022-09-03T08:48:05;0.80;;;0.38;;
24521;SDS011;12680;57.804;12.190;2022-09-03T08:50:28;0.75;;;0.30;;
24521;SDS011;12680;57.804;12.190;2022-09-03T08:53:20;0.30;;;0.30;;
24521;SDS011;12680;57.804;12.190;2022-09-03T08:56:28;1.13;;;0.45;;
24521;SDS011;12680;57.804;12.190;2022-09-03T08:58:57;1.95;;;0.40;;
24521;SDS011;12680;57.804;12.190;2022-09-03T09:04:07;0.50;;;0.50;;
24521;SDS011;12680;57.804;12.190;2022-09-03T09:15:23;0.77;;;0.45;;
24521;SDS011;12680;57.804;12.190;2022-09-03T09:20:52;3.05;;;0.50;;
24521;SDS011;12680;57.804;12.190;2022-09-03T09:23:32;0.55;;;0.40;;
24521;SDS011;12680;57.804;12.190;2022-09-03T09:26:11;1.30;;;0.50;;
24521;SDS011;12680;57.804;12.190;2022-09-03T09:28:42;0.80;;;0.50;;
24521;SDS011;12680;57.804;12.190;2022-09-03T09:31:20;0.85;;;0.30;;
24521;SDS011;12680;57.804;12.190;2022-09-03T09:33:47;0.88;;;0.50;;
24521;SDS011;12680;57.804;12.190;2022-09-03T09:36:20;0.70;;;0.40;;
24521;SDS011;12680;57.804;12.190;2022-09-03T09:38:48;1.73;;;0.50;;
24521;SDS011;12680;57.804;12.190;2022-09-03T09:41:21;1.13;;;0.52;;
24521;SDS011;12680;57.804;12.190;2022-09-03T09:43:59;0.60;;;0.30;;
24521;SDS011;12680;57.804;12.190;2022-09-03T09:46:31;0.98;;;0.40;;
24521;SDS011;12680;57.804;12.190;2022-09-03T09:52:10;0.60;;;0.60;;
24521;SDS011;12680;57.804;12.190;2022-09-03T09:54:39;1.23;;;0.40;;
24521;SDS011;12680;57.804;12.190;2022-09-03T09:57:16;0.52;;;0.50;;
24521;SDS011;12680;57.804;12.190;2022-09-03T09:59:47;0.52;;;0.43;;
24521;SDS011;12680;57.804;12.190;2022-09-03T10:02:22;0.40;;;0.40;;
24521;SDS011;12680;57.804;12.190;2022-09-03T10:05:13;0.50;;;0.38;;
24521;SDS011;12680;57.804;12.190;2022-09-03T10:07:55;0.55;;;0.40;;
24521;SDS011;12680;57.804;12.190;2022-09-03T10:10:25;1.30;;;0.32;;
24521;SDS011;12680;57.804;12.190;2022-09-03T10:18:29;0.35;;;0.35;;
24521;SDS011;12680;57.804;12.190;2022-09-03T10:21:14;0.40;;;0.40;;
24521;SDS011;12680;57.804;12.190;2022-09-03T10:23:49;0.57;;;0.40;;
24521;SDS011;12680;57.804;12.190;2022-09-03T10:26:33;0.43;;;0.35;;
24521;SDS011;12680;57.804;12.190;2022-09-03T10:29:03;0.38;;;0.38;;
24521;SDS011;12680;57.804;12.190;2022-09-03T10:37:43;0.38;;;0.38;;
24521;SDS011;12680;57.804;12.190;2022-09-03T10:40:41;0.40;;;0.30;;
24521;SDS011;12680;57.804;12.190;2022-09-03T10:46:21;0.40;;;0.40;;
24521;SDS011;12680;57.804;12.190;2022-09-03T10:51:40;1.83;;;0.60;;
24521;SDS011;12680;57.804;12.190;2022-09-03T10:54:18;0.60;;;0.40;;
24521;SDS011;12680;57.804;12.190;2022-09-03T11:00:00;4.53;;;1.40;;
24521;SDS011;12680;57.804;12.190;2022-09-03T11:05:30;0.52;;;0.45;;
24521;SDS011;12680;57.804;12.190;2022-09-03T11:08:11;0.90;;;0.63;;
24521;SDS011;12680;57.804;12.190;2022-09-03T11:10:48;1.08;;;0.50;;
24521;SDS011;12680;57.804;12.190;2022-09-03T11:16:30;0.88;;;0.45;;
24521;SDS011;12680;57.804;12.190;2022-09-03T11:19:01;1.20;;;0.60;;
24521;SDS011;12680;57.804;12.190;2022-09-03T11:21:36;0.30;;;0.30;;
24521;SDS011;12680;57.804;12.190;2022-09-03T11:24:28;2.88;;;0.50;;
24521;SDS011;12680;57.804;12.190;2022-09-03T11:27:18;2.28;;;0.60;;
24521;SDS011;12680;57.804;12.190;2022-09-03T11:35:13;0.45;;;0.40;;
24521;SDS011;12680;57.804;12.190;2022-09-03T11:37:49;0.38;;;0.30;;
24521;SDS011;12680;57.804;12.190;2022-09-03T11:40:39;0.80;;;0.55;;
24521;SDS011;12680;57.804;12.190;2022-09-03T11:43:29;1.00;;;0.47;;
24521;SDS011;12680;57.804;12.190;2022-09-03T11:46:08;1.10;;;0.40;;
24521;SDS011;12680;57.804;12.190;2022-09-03T11:49:08;0.75;;;0.60;;
24521;SDS011;12680;57.804;12.190;2022-09-03T11:51:38;0.60;;;0.43;;
24521;SDS011;12680;57.804;12.190;2022-09-03T11:59:39;4.22;;;0.52;;
24521;SDS011;12680;57.804;12.190;2022-09-03T12:02:18;0.50;;;0.40;;
24521;SDS011;12680;57.804;12.190;2022-09-03T12:10:33;1.05;;;0.30;;
24521;SDS011;12680;57.804;12.190;2022-09-03T12:16:18;0.52;;;0.40;;
24521;SDS011;12680;57.804;12.190;2022-09-03T12:19:02;0.50;;;0.40;;
24521;SDS011;12680;57.804;12.190;2022-09-03T12:21:46;0.32;;;0.32;;
24521;SDS011;12680;57.804;12.190;2022-09-03T12:24:18;0.73;;;0.43;;
24521;SDS011;12680;57.804;12.190;2022-09-03T12:26:50;1.30;;;0.60;;
24521;SDS011;12680;57.804;12.190;2022-09-03T12:29:19;0.28;;;0.22;;
24521;SDS011;12680;57.804;12.190;2022-09-03T12:32:04;1.33;;;0.43;;
24521;SDS011;12680;57.804;12.190;2022-09-03T12:34:42;1.40;;;0.47;;
24521;SDS011;12680;57.804;12.190;2022-09-03T12:37:22;0.32;;;0.30;;
24521;SDS011;12680;57.804;12.190;2022-09-03T12:40:18;0.40;;;0.30;;
24521;SDS011;12680;57.804;12.190;2022-09-03T12:42:49;0.52;;;0.20;;
24521;SDS011;12680;57.804;12.190;2022-09-03T12:45:22;0.30;;;0.30;;
24521;SDS011;12680;57.804;12.190;2022-09-03T12:47:54;1.90;;;0.63;;
24521;SDS011;12680;57.804;12.190;2022-09-03T12:50:26;0.88;;;0.63;;
24521;SDS011;12680;57.804;12.190;2022-09-03T12:58:17;0.30;;;0.30;;
24521;SDS011;12680;57.804;12.190;2022-09-03T13:00:54;1.00;;;0.40;;
24521;SDS011;12680;57.804;12.190;2022-09-03T13:06:25;0.70;;;0.47;;
24521;SDS011;12680;57.804;12.190;2022-09-03T13:08:58;2.17;;;0.65;;
24521;SDS011;12680;57.804;12.190;2022-09-03T13:11:31;1.00;;;0.60;;
24521;SDS011;12680;57.804;12.190;2022-09-03T13:14:11;0.40;;;0.40;;
24521;SDS011;12680;57.804;12.190;2022-09-03T13:22:12;0.30;;;0.30;;
24521;SDS011;12680;57.804;12.190;2022-09-03T13:28:13;1.55;;;0.75;;
24521;SDS011;12680;57.804;12.190;2022-09-03T13:37:12;0.60;;;0.40;;
24521;SDS011;12680;57.804;12.190;2022-09-03T13:39:57;0.68;;;0.50;;
24521;SDS011;12680;57.804;12.190;2022-09-03T13:48:20;0.47;;;0.35;;
24521;SDS011;12680;57.804;12.190;2022-09-03T13:57:15;0.50;;;0.40;;
24521;SDS011;12680;57.804;12.190;2022-09-03T14:05:14;0.45;;;0.40;;
24521;SDS011;12680;57.804;12.190;2022-09-03T14:16:48;1.67;;;0.40;;
24521;SDS011;12680;57.804;12.190;2022-09-03T14:19:42;0.50;;;0.50;;
24521;SDS011;12680;57.804;12.190;2022-09-03T14:22:23;0.70;;;0.47;;
24521;SDS011;12680;57.804;12.190;2022-09-03T14:25:16;1.67;;;0.45;;
24521;SDS011;12680;57.804;12.190;2022-09-03T14:27:52;0.50;;;0.50;;
24521;SDS011;12680;57.804;12.190;2022-09-03T14:36:25;0.28;;;0.28;;
24521;SDS011;12680;57.804;12.190;2022-09-03T14:39:19;0.60;;;0.40;;
24521;SDS011;12680;57.804;12.190;2022-09-03T14:44:40;1.17;;;0.40;;
24521;SDS011;12680;57.804;12.190;2022-09-03T14:56:20;1.70;;;0.60;;
24521;SDS011;12680;57.804;12.190;2022-09-03T15:01:42;0.52;;;0.47;;
24521;SDS011;12680;57.804;12.190;2022-09-03T15:07:15;0.60;;;0.60;;
24521;SDS011;12680;57.804;12.190;2022-09-03T15:09:59;0.70;;;0.65;;
24521;SDS011;12680;57.804;12.190;2022-09-03T15:12:39;1.03;;;0.50;;
24521;SDS011;12680;57.804;12.190;2022-09-03T15:26:09;0.40;;;0.40;;
24521;SDS011;12680;57.804;12.190;2022-09-03T15:34:49;0.75;;;0.60;;
24521;SDS011;12680;57.804;12.190;2022-09-03T15:37:46;0.80;;;0.30;;
24521;SDS011;12680;57.804;12.190;2022-09-03T15:40:28;0.30;;;0.30;;
24521;SDS011;12680;57.804;12.190;2022-09-03T15:48:59;0.35;;;0.35;;
24521;SDS011;12680;57.804;12.190;2022-09-03T15:52:14;0.40;;;0.40;;
24521;SDS011;12680;57.804;12.190;2022-09-03T16:00:48;0.43;;;0.35;;
24521;SDS011;12680;57.804;12.190;2022-09-03T16:03:42;0.77;;;0.55;;
24521;SDS011;12680;57.804;12.190;2022-09-03T16:08:58;1.38;;;0.50;;
24521;SDS011;12680;57.804;12.190;2022-09-03T16:11:35;1.20;;;0.60;;
24521;SDS011;12680;57.804;12.190;2022-09-03T16:14:16;0.50;;;0.40;;
24521;SDS011;12680;57.804;12.190;2022-09-03T16:19:55;0.45;;;0.30;;
24521;SDS011;12680;57.804;12.190;2022-09-03T16:22:45;0.40;;;0.30;;
24521;SDS011;12680;57.804;12.190;2022-09-03T16:29:13;0.40;;;0.40;;
24521;SDS011;12680;57.804;12.190;2022-09-03T16:32:12;0.50;;;0.32;;
24521;SDS011;12680;57.804;12.190;2022-09-03T16:40:43;0.52;;;0.52;;
24521;SDS011;12680;57.804;12.190;2022-09-03T16:46:21;0.47;;;0.47;;
24521;SDS011;12680;57.804;12.190;2022-09-03T17:00:38;1.08;;;0.60;;
24521;SDS011;12680;57.804;12.190;2022-09-03T17:03:16;0.98;;;0.60;;
24521;SDS011;12680;57.804;12.190;2022-09-03T17:06:11;1.30;;;0.90;;
24521;SDS011;12680;57.804;12.190;2022-09-03T17:17:33;0.97;;;0.80;;
24521;SDS011;12680;57.804;12.190;2022-09-03T17:34:08;1.35;;;0.95;;
24521;SDS011;12680;57.804;12.190;2022-09-03T17:36:52;1.05;;;0.80;;
24521;SDS011;12680;57.804;12.190;2022-09-03T17:39:36;2.17;;;0.90;;
24521;SDS011;12680;57.804;12.190;2022-09-03T17:45:53;5.80;;;4.30;;
24521;SDS011;12680;57.804;12.190;2022-09-03T17:54:07;19.15;;;12.70;;
24521;SDS011;12680;57.804;12.190;2022-09-03T18:02:16;4.03;;;3.42;;
24521;SDS011;12680;57.804;12.190;2022-09-03T18:05:09;5.38;;;3.95;;
24521;SDS011;12680;57.804;12.190;2022-09-03T18:16:48;22.13;;;11.70;;
24521;SDS011;12680;57.804;12.190;2022-09-03T18:22:52;25.08;;;15.02;;
24521;SDS011;12680;57.804;12.190;2022-09-03T18:25:42;15.07;;;11.00;;
24521;SDS011;12680;57.804;12.190;2022-09-03T18:32:24;15.55;;;12.10;;
24521;SDS011;12680;57.804;12.190;2022-09-03T18:35:14;12.68;;;10.23;;
24521;SDS011;12680;57.804;12.190;2022-09-03T18:38:01;20.35;;;14.38;;
24521;SDS011;12680;57.804;12.190;2022-09-03T18:40:51;47.33;;;28.02;;
24521;SDS011;12680;57.804;12.190;2022-09-03T18:46:50;21.75;;;13.70;;
24521;SDS011;12680;57.804;12.190;2022-09-03T18:50:20;8.15;;;6.93;;
24521;SDS011;12680;57.804;12.190;2022-09-03T18:56:14;45.67;;;25.58;;
24521;SDS011;12680;57.804;12.190;2022-09-03T18:59:36;96.30;;;51.78;;
24521;SDS011;12680;57.804;12.190;2022-09-03T19:06:18;98.43;;;48.13;;
24521;SDS011;12680;57.804;12.190;2022-09-03T19:12:21;285.33;;;127.95;;
24521;SDS011;12680;57.804;12.190;2022-09-03T19:15:26;97.15;;;44.53;;
24521;SDS011;12680;57.804;12.190;2022-09-03T19:18:33;61.38;;;29.95;;
24521;SDS011;12680;57.804;12.190;2022-09-03T19:21:35;38.92;;;20.38;;
24521;SDS011;12680;57.804;12.190;2022-09-03T19:24:36;25.83;;;15.20;;
24521;SDS011;12680;57.804;12.190;2022-09-03T19:30:47;15.98;;;10.77;;
24521;SDS011;12680;57.804;12.190;2022-09-03T19:37:18;3.03;;;2.00;;
24521;SDS011;12680;57.804;12.190;2022-09-03T19:40:30;5.07;;;2.90;;
24521;SDS011;12680;57.804;12.190;2022-09-03T19:46:49;3.58;;;2.10;;
24521;SDS011;12680;57.804;12.190;2022-09-03T19:53:22;4.30;;;2.50;;
24521;SDS011;12680;57.804;12.190;2022-09-03T19:56:18;6.72;;;2.85;;
24521;SDS011;12680;57.804;12.190;2022-09-03T19:59:22;22.10;;;9.38;;
24521;SDS011;12680;57.804;12.190;2022-09-03T20:05:00;12.30;;;6.30;;
24521;SDS011;12680;57.804;12.190;2022-09-03T20:07:48;4.65;;;2.95;;
24521;SDS011;12680;57.804;12.190;2022-09-03T20:10:38;3.67;;;1.92;;
24521;SDS011;12680;57.804;12.190;2022-09-03T20:13:13;2.78;;;1.67;;
24521;SDS011;12680;57.804;12.190;2022-09-03T20:15:51;1.02;;;0.93;;
24521;SDS011;12680;57.804;12.190;2022-09-03T20:32:47;1.02;;;0.93;;
24521;SDS011;12680;57.804;12.190;2022-09-03T20:41:16;3.13;;;1.15;;
24521;SDS011;12680;57.804;12.190;2022-09-03T20:44:01;1.92;;;1.17;;
24521;SDS011;12680;57.804;12.190;2022-09-03T20:52:11;1.70;;;0.90;;
24521;SDS011;12680;57.804;12.190;2022-09-03T20:57:54;2.00;;;0.90;;
24521;SDS011;12680;57.804;12.190;2022-09-03T21:00:32;0.95;;;0.90;;
24521;SDS011;12680;57.804;12.190;2022-09-03T21:03:29;1.20;;;0.98;;
24521;SDS011;12680;57.804;12.190;2022-09-03T21:12:00;3.60;;;1.20;;
24521;SDS011;12680;57.804;12.190;2022-09-03T21:14:50;2.33;;;1.10;;
24521;SDS011;12680;57.804;12.190;2022-09-03T21:25:34;0.70;;;0.70;;
24521;SDS011;12680;57.804;12.190;2022-09-03T21:28:17;1.10;;;1.00;;
24521;SDS011;12680;57.804;12.190;2022-09-03T21:30:55;1.02;;;0.90;;
24521;SDS011;12680;57.804;12.190;2022-09-03T21:33:28;2.15;;;1.10;;
24521;SDS011;12680;57.804;12.190;2022-09-03T21:39:08;1.67;;;1.30;;
24521;SDS011;12680;57.804;12.190;2022-09-03T21:42:31;0.70;;;0.70;;
24521;SDS011;12680;57.804;12.190;2022-09-03T21:47:47;3.22;;;1.20;;
24521;SDS011;12680;57.804;12.190;2022-09-03T21:50:28;2.47;;;0.88;;
24521;SDS011;12680;57.804;12.190;2022-09-03T21:53:14;1.83;;;1.13;;
24521;SDS011;12680;57.804;12.190;2022-09-03T21:59:55;2.95;;;0.80;;
24521;SDS011;12680;57.804;12.190;2022-09-03T22:04:53;2.70;;;1.08;;